Time;durP1;ratioP1;P1;durP2;ratioP2;P2;SDS_P1;SDS_P2;PMS_P1;PMS_P2;Temp;Humidity;BMP_temperature;BMP_pressure;BME280_temperature;BME280_humidity;BME280_pressure;Samples;Min_cycle;Max_cycle;Signal;HPM_P1;HPM_P2
2022/09/29 00:01:49;;;;;;;23.48;9.15;;;;;;;8.28;100.00;99873.19;5037301;28;20026;-38
2022/09/29 00:04:14;;;;;;;20.80;8.70;;;;;;;8.26;100.00;99872.53;5034426;28;20030;-40
2022/09/29 00:06:40;;;;;;;18.70;8.20;;;;;;;8.27;100.00;99874.22;5032304;28;20259;-39
2022/09/29 00:09:05;;;;;;;17.27;9.10;;;;;;;8.28;100.00;99870.50;5037023;28;20026;-40
2022/09/29 00:11:31;;;;;;;20.98;9.68;;;;;;;8.28;100.00;99881.22;5037292;28;20030;-40
2022/09/29 00:13:56;;;;;;;22.88;8.40;;;;;;;8.28;100.00;99870.50;5036947;28;20053;-40
2022/09/29 00:16:21;;;;;;;22.38;9.50;;;;;;;8.29;100.00;99872.16;5037022;28;20097;-41
2022/09/29 00:18:47;;;;;;;20.98;8.77;;;;;;;8.29;100.00;99867.66;5036716;28;20041;-38
2022/09/29 00:21:15;;;;;;;17.83;9.07;;;;;;;8.32;100.00;99866.41;5034916;28;20026;-39
2022/09/29 00:23:40;;;;;;;;;;;;;;;8.33;100.00;99862.72;5031429;28;20029;-41
2022/09/29 00:26:14;;;;;;;18.98;9.18;;;;;;;8.32;100.00;99872.63;5036976;28;19909;-39
2022/09/29 00:28:44;;;;;;;24.90;8.95;;;;;;;8.31;100.00;99870.94;5036666;28;20018;-40
2022/09/29 00:31:11;;;;;;;23.67;9.13;;;;;;;8.30;100.00;99868.47;5037010;28;20051;-40
2022/09/29 00:33:37;;;;;;;25.65;8.85;;;;;;;8.29;100.00;99867.66;5036826;28;20030;-40
2022/09/29 00:36:08;;;;;;;23.60;8.75;;;;;;;8.28;100.00;99875.88;5036450;28;20031;-40
2022/09/29 00:38:34;;;;;;;18.90;9.10;;;;;;;8.26;100.00;99865.31;5019228;28;20037;-39
2022/09/29 00:41:00;;;;;;;19.25;9.48;;;;;;;8.26;100.00;99867.19;5036417;28;20057;-41
2022/09/29 00:43:52;;;;;;;24.00;9.55;;;;;;;8.24;100.00;99863.84;5032632;28;20039;-40
2022/09/29 00:46:32;;;;;;;18.42;8.80;;;;;;;8.25;100.00;99860.16;5035578;28;20021;-41
2022/09/29 00:49:01;;;;;;;24.88;9.32;;;;;;;8.27;100.00;99863.50;5036777;28;20021;-40
2022/09/29 00:51:27;;;;;;;21.42;8.65;;;;;;;8.26;100.00;99864.50;5019691;28;20036;-40
2022/09/29 00:53:53;;;;;;;19.40;8.77;;;;;;;8.25;100.00;99861.00;5036431;28;20033;-40
2022/09/29 00:56:19;;;;;;;24.95;9.02;;;;;;;8.24;100.00;99858.50;5018706;28;20034;-41
2022/09/29 00:58:55;;;;;;;18.60;9.25;;;;;;;8.24;100.00;99861.16;5022029;28;20024;-40
2022/09/29 01:01:21;;;;;;;18.30;9.38;;;;;;;8.22;100.00;99858.69;5036031;28;20044;-41
2022/09/29 01:03:48;;;;;;;28.17;9.93;;;;;;;8.23;100.00;99871.06;5035704;28;20044;-40
2022/09/29 01:06:23;;;;;;;21.33;9.35;;;;;;;8.24;100.00;99866.53;5018894;28;20049;-41
2022/09/29 01:09:22;;;;;;;26.08;9.30;;;;;;;8.25;100.00;99861.00;5036008;28;20024;-39
2022/09/29 01:11:51;;;;;;;21.95;8.32;;;;;;;8.26;100.00;99857.28;4977110;28;20060;-40
2022/09/29 01:14:16;;;;;;;;;;;;;;;8.28;100.00;99859.78;5035807;28;20157;-41
2022/09/29 01:16:42;;;;;;;19.27;9.10;;;;;;;8.28;100.00;99854.41;5035823;28;19917;-40
2022/09/29 01:19:15;;;;;;;20.33;8.45;;;;;;;8.26;100.00;99861.81;5035642;28;20014;-41
2022/09/29 01:21:54;;;;;;;20.63;9.35;;;;;;;8.24;100.00;99853.13;5036167;28;20050;-40
2022/09/29 01:24:57;;;;;;;20.55;9.13;;;;;;;8.22;100.00;99860.56;5035687;28;20022;-40
2022/09/29 01:28:08;;;;;;;22.27;8.82;;;;;;;8.19;100.00;99861.75;4993885;28;20048;-40
2022/09/29 01:30:57;;;;;;;24.13;9.30;;;;;;;8.16;100.00;99870.16;5016302;28;20077;-40
2022/09/29 01:33:40;;;;;;;22.48;7.88;;;;;;;8.11;100.00;99867.25;5027295;28;20022;-39
2022/09/29 01:36:12;;;;;;;33.17;10.07;;;;;;;8.06;100.00;99862.44;5018429;28;20018;-42
2022/09/29 01:38:41;;;;;;;18.20;8.48;;;;;;;8.02;100.00;99860.34;5035098;28;20056;-41
2022/09/29 01:41:09;;;;;;;22.10;8.90;;;;;;;7.96;100.00;99861.91;5035232;28;20078;-41
2022/09/29 01:43:48;;;;;;;20.38;8.15;;;;;;;7.94;100.00;99860.44;5018605;28;20030;-40
2022/09/29 01:46:20;;;;;;;22.00;9.20;;;;;;;7.89;100.00;99859.16;5018016;28;20025;-40
2022/09/29 01:48:48;;;;;;;20.70;9.48;;;;;;;7.88;100.00;99859.34;5018786;28;20034;-40
2022/09/29 01:51:18;;;;;;;;;;;;;;;7.88;100.00;99857.50;5013684;28;20069;-41
2022/09/29 01:53:47;;;;;;;28.08;9.02;;;;;;;7.87;100.00;99857.69;5033275;28;19909;-40
2022/09/29 01:56:22;;;;;;;27.27;10.05;;;;;;;7.86;100.00;99864.06;5017659;28;20046;-41
2022/09/29 01:58:53;;;;;;;19.20;9.18;;;;;;;7.83;100.00;99864.44;5018470;28;20021;-40
2022/09/29 02:01:21;;;;;;;22.77;10.00;;;;;;;7.80;100.00;99862.97;5035224;28;20052;-42
2022/09/29 02:03:52;;;;;;;23.48;9.77;;;;;;;7.79;100.00;99865.81;5017976;28;20025;-42
2022/09/29 02:09:03;;;;;;;25.10;9.63;;;;;;;7.74;100.00;99868.25;5009883;28;20124;-36
2022/09/29 02:11:29;;;;;;;24.20;9.68;;;;;;;7.70;100.00;99863.25;4994881;28;20022;-37
2022/09/29 02:13:56;;;;;;;19.25;9.40;;;;;;;7.66;100.00;99859.31;4994324;28;20393;-37
2022/09/29 02:16:29;;;;;;;28.83;10.80;;;;;;;7.65;100.00;99857.63;4994194;28;20576;-37
2022/09/29 02:18:57;;;;;;;27.17;10.73;;;;;;;7.61;100.00;99863.53;5012597;28;20407;-37
2022/09/29 02:21:23;;;;;;;25.33;9.88;;;;;;;7.56;100.00;99861.44;4994409;28;20037;-37
2022/09/29 02:23:50;;;;;;;23.83;10.32;;;;;;;7.52;100.00;99854.78;5011960;28;20033;-37
2022/09/29 02:26:16;;;;;;;22.10;10.68;;;;;;;7.49;100.00;99865.88;4994224;28;20037;-37
2022/09/29 02:28:43;;;;;;;23.48;10.57;;;;;;;7.48;100.00;99864.22;4998221;28;20026;-37
2022/09/29 02:31:08;;;;;;;25.70;10.88;;;;;;;7.45;100.00;99864.56;5000850;28;20163;-38
2022/09/29 02:33:34;;;;;;;21.48;10.30;;;;;;;7.41;100.00;99864.13;5015893;28;20160;-36
2022/09/29 02:36:24;;;;;;;24.58;10.73;;;;;;;7.38;100.00;99866.34;5015425;28;20026;-37
2022/09/29 02:38:58;;;;;;;24.08;10.50;;;;;;;7.33;100.00;99855.38;5015207;28;20446;-37
2022/09/29 02:41:44;;;;;;;20.50;9.55;;;;;;;7.33;100.00;99858.03;4997632;28;20432;-37
2022/09/29 02:44:25;;;;;;;25.33;9.90;;;;;;;7.33;100.00;99866.91;5015363;28;20436;-37
2022/09/29 02:46:53;;;;;;;27.23;10.48;;;;;;;7.28;100.00;99860.44;4997850;28;20093;-37
2022/09/29 02:49:32;;;;;;;20.70;10.02;;;;;;;7.24;100.00;99863.50;5016078;28;20366;-36
2022/09/29 02:52:10;;;;;;;22.77;10.45;;;;;;;7.20;100.00;99867.53;5015447;28;20172;-37
2022/09/29 02:54:56;;;;;;;26.42;11.00;;;;;;;7.19;100.00;99870.41;4978094;28;20528;-38
2022/09/29 02:57:55;;;;;;;19.75;9.90;;;;;;;7.16;100.00;99862.72;5011888;28;20113;-37
2022/09/29 03:00:21;;;;;;;20.13;10.27;;;;;;;7.13;100.00;99869.28;5013412;28;20192;-36
2022/09/29 03:02:46;;;;;;;27.88;11.27;;;;;;;7.11;100.00;99867.81;5014820;28;20030;-36
2022/09/29 03:05:15;;;;;;;29.85;10.88;;;;;;;7.10;100.00;99866.16;5014708;28;20032;-36
2022/09/29 03:07:40;;;;;;;25.80;10.88;;;;;;;7.06;100.00;99876.41;5014013;28;20042;-37
2022/09/29 03:10:07;;;;;;;25.98;11.10;;;;;;;7.02;100.00;99861.72;5015523;28;20033;-38
2022/09/29 03:12:33;;;;;;;28.00;12.52;;;;;;;7.02;100.00;99875.09;5013643;28;20160;-38
2022/09/29 03:14:58;;;;;;;32.20;12.65;;;;;;;7.00;100.00;99871.75;5014950;28;20030;-36
2022/09/29 03:17:24;;;;;;;33.70;13.40;;;;;;;7.00;100.00;99869.94;5015088;28;20092;-37
2022/09/29 03:19:49;;;;;;;32.00;13.90;;;;;;;7.00;100.00;99874.44;5014724;28;20068;-36
2022/09/29 03:22:14;;;;;;;40.78;13.50;;;;;;;6.98;100.00;99874.63;5015173;28;20026;-36
2022/09/29 03:24:40;;;;;;;30.23;13.07;;;;;;;6.94;100.00;99872.50;5014909;28;20034;-36
2022/09/29 03:27:08;;;;;;;26.63;12.80;;;;;;;6.94;100.00;99877.84;5014906;28;20457;-36
2022/09/29 03:29:34;;;;;;;34.15;13.90;;;;;;;6.92;100.00;99879.88;5014950;28;20068;-34
2022/09/29 03:31:59;;;;;;;30.27;13.13;;;;;;;6.91;100.00;99878.22;5014389;28;20509;-38
2022/09/29 03:34:25;;;;;;;29.30;12.20;;;;;;;6.89;100.00;99875.72;5014552;28;20026;-38
2022/09/29 03:36:51;;;;;;;31.10;13.95;;;;;;;6.87;100.00;99871.56;5014633;28;20057;-37
2022/09/29 03:39:17;;;;;;;31.85;14.75;;;;;;;6.84;100.00;99878.09;4980333;28;20437;-39
2022/09/29 03:41:42;;;;;;;38.60;15.27;;;;;;;6.84;100.00;99880.78;5014842;28;20041;-38
2022/09/29 03:44:07;;;;;;;53.30;15.77;;;;;;;6.85;100.00;99892.31;5014866;28;20030;-38
2022/09/29 03:46:33;;;;;;;35.50;16.27;;;;;;;6.84;100.00;99887.97;5014451;28;20018;-35
2022/09/29 03:48:58;;;;;;;33.10;15.18;;;;;;;6.82;100.00;99886.31;5014357;28;20034;-36
2022/09/29 03:51:24;;;;;;;38.97;14.85;;;;;;;6.81;100.00;99878.47;5008947;28;20141;-36
2022/09/29 03:53:49;;;;;;;32.85;14.90;;;;;;;6.79;100.00;99886.69;5014456;28;20033;-37
2022/09/29 03:56:14;;;;;;;36.50;15.40;;;;;;;6.76;100.00;99887.03;5012569;28;20058;-37
2022/09/29 03:58:40;;;;;;;33.05;14.20;;;;;;;6.73;100.00;99887.38;4988116;28;20092;-36
2022/09/29 04:01:06;;;;;;;36.08;15.73;;;;;;;6.72;100.00;99880.38;5012696;28;20455;-36
2022/09/29 04:03:31;;;;;;;36.58;16.33;;;;;;;6.70;100.00;99885.06;5014658;28;20032;-36
2022/09/29 04:05:57;;;;;;;36.60;16.10;;;;;;;6.69;100.00;99886.09;5014312;28;20026;-36
2022/09/29 04:08:22;;;;;;;42.67;17.40;;;;;;;6.65;100.00;99884.78;5013833;28;20057;-39
2022/09/29 04:10:47;;;;;;;45.35;19.23;;;;;;;6.66;100.00;99883.78;5014515;28;20030;-38
2022/09/29 04:13:13;;;;;;;45.10;18.02;;;;;;;6.64;100.00;99895.69;5014298;28;20325;-37
2022/09/29 04:15:38;;;;;;;39.17;17.52;;;;;;;6.64;100.00;99893.81;4996087;28;20045;-39
2022/09/29 04:18:04;;;;;;;44.42;19.20;;;;;;;6.62;100.00;99893.16;4979960;28;20029;-36
2022/09/29 04:20:30;;;;;;;45.78;17.52;;;;;;;6.63;100.00;99902.84;5013863;28;20053;-39
2022/09/29 04:22:55;;;;;;;52.85;19.27;;;;;;;6.59;100.00;99897.03;5013498;28;20025;-38
2022/09/29 04:25:20;;;;;;;50.72;20.23;;;;;;;6.57;100.00;99903.56;5013837;28;20120;-37
2022/09/29 04:27:46;;;;;;;51.47;19.75;;;;;;;6.53;100.00;99903.09;5013936;28;20084;-37
2022/09/29 04:30:11;;;;;;;44.70;19.52;;;;;;;6.53;100.00;99902.25;5013805;28;20029;-37
2022/09/29 04:32:37;;;;;;;47.15;20.48;;;;;;;6.54;100.00;99907.44;5013948;28;20243;-36
2022/09/29 04:35:03;;;;;;;52.80;20.38;;;;;;;6.53;100.00;99907.59;4979597;28;20088;-36
2022/09/29 04:37:28;;;;;;;52.72;20.88;;;;;;;6.51;100.00;99904.28;5013738;28;20048;-38
2022/09/29 04:39:53;;;;;;;54.15;22.58;;;;;;;6.50;100.00;99905.28;4994651;28;20030;-38
2022/09/29 04:42:19;;;;;;;54.75;23.20;;;;;;;6.50;100.00;99907.97;5025719;28;20026;-38
2022/09/29 04:44:45;;;;;;;62.38;22.98;;;;;;;6.52;100.00;99914.78;4999285;28;20044;-37
2022/09/29 04:47:10;;;;;;;173.30;23.05;;;;;;;6.52;100.00;99922.81;4984962;28;20034;-37
2022/09/29 04:49:36;;;;;;;241.52;26.23;;;;;;;6.51;100.00;99923.84;4985623;28;20033;-36
2022/09/29 04:52:02;;;;;;;53.28;22.35;;;;;;;6.53;100.00;99921.81;5009433;28;20031;-37
2022/09/29 04:54:31;;;;;;;121.10;24.33;;;;;;;6.56;100.00;99923.31;5000149;28;20049;-40
2022/09/29 04:56:56;;;;;;;88.40;23.65;;;;;;;6.57;100.00;99932.97;5017389;28;20029;-36
2022/09/29 04:59:22;;;;;;;81.82;24.85;;;;;;;6.63;100.00;99931.44;4999381;28;20049;-36
2022/09/29 05:01:48;;;;;;;139.20;28.20;;;;;;;6.65;100.00;99930.25;4994877;28;20032;-36
2022/09/29 05:04:13;;;;;;;102.50;28.55;;;;;;;6.70;100.00;99935.06;4984298;28;20028;-39
2022/09/29 05:06:38;;;;;;;244.35;32.55;;;;;;;6.68;100.00;99937.91;4997119;28;20033;-39
2022/09/29 05:09:05;;;;;;;194.07;28.65;;;;;;;6.68;100.00;99943.25;5013395;28;20484;-37
2022/09/29 05:11:30;;;;;;;195.85;29.25;;;;;;;6.70;100.00;99951.94;4968036;28;20035;-38
2022/09/29 05:13:56;;;;;;;172.23;29.17;;;;;;;6.71;100.00;99942.06;4994116;28;20028;-37
2022/09/29 05:16:21;;;;;;;103.50;29.20;;;;;;;6.75;100.00;99944.19;4995034;28;20022;-36
2022/09/29 05:18:47;;;;;;;146.07;30.50;;;;;;;6.75;100.00;99948.72;5013310;28;20465;-38
2022/09/29 05:21:12;;;;;;;167.85;30.08;;;;;;;6.79;100.00;99950.00;5013304;28;20512;-39
2022/09/29 05:23:37;;;;;;;97.50;28.25;;;;;;;6.71;100.00;99948.22;5008014;28;20034;-37
2022/09/29 05:26:05;;;;;;;134.45;28.00;;;;;;;6.71;100.00;99945.56;5002256;28;20048;-36
2022/09/29 05:28:31;;;;;;;70.78;28.15;;;;;;;6.68;100.00;99948.59;5006859;28;20030;-35
2022/09/29 05:31:03;;;;;;;91.95;29.02;;;;;;;6.66;100.00;99950.63;5005274;28;20037;-37
2022/09/29 05:33:29;;;;;;;81.40;29.38;;;;;;;6.66;100.00;99961.34;4993061;28;20038;-36
2022/09/29 05:35:54;;;;;;;99.47;29.70;;;;;;;6.67;100.00;99962.97;5004584;28;20026;-36
2022/09/29 05:38:21;;;;;;;113.85;31.52;;;;;;;6.65;100.00;99948.97;4996144;28;20528;-37
2022/09/29 05:40:47;;;;;;;66.93;28.25;;;;;;;6.63;100.00;99959.00;5001156;28;20022;-37
2022/09/29 05:43:12;;;;;;;81.50;30.17;;;;;;;6.63;100.00;99964.34;5012637;28;20065;-38
2022/09/29 05:45:38;;;;;;;108.63;32.22;;;;;;;6.63;100.00;99960.84;4979100;28;20027;-35
2022/09/29 05:48:03;;;;;;;187.82;33.63;;;;;;;6.61;100.00;99969.06;5012842;28;20104;-35
2022/09/29 05:50:31;;;;;;;74.13;30.63;;;;;;;6.60;100.00;99967.38;5011891;28;20511;-36
2022/09/29 05:53:01;;;;;;;75.50;33.03;;;;;;;6.70;100.00;99970.66;4995238;28;20115;-37
2022/09/29 05:55:27;;;;;;;73.82;31.52;;;;;;;6.76;100.00;99969.09;4977854;28;20038;-38
2022/09/29 05:57:52;;;;;;;74.55;31.52;;;;;;;6.80;100.00;99968.56;4994735;28;20045;-37
2022/09/29 06:00:18;;;;;;;164.50;34.58;;;;;;;6.81;100.00;99972.91;5012194;28;20064;-37
2022/09/29 06:02:43;;;;;;;87.07;32.97;;;;;;;6.88;100.00;99972.19;5012486;28;20160;-37
2022/09/29 06:05:08;;;;;;;286.23;38.50;;;;;;;6.78;100.00;99967.91;5013023;28;20465;-37
2022/09/29 06:07:34;;;;;;;206.50;31.75;;;;;;;6.75;100.00;99978.97;5012187;28;20105;-38
2022/09/29 06:09:59;;;;;;;152.32;33.72;;;;;;;6.75;100.00;99965.59;5011984;28;20034;-36
2022/09/29 06:12:25;;;;;;;190.38;34.67;;;;;;;6.82;100.00;99971.91;5012258;28;20062;-37
2022/09/29 06:14:50;;;;;;;150.55;35.72;;;;;;;6.86;100.00;99982.25;5012370;28;20036;-37
2022/09/29 06:17:16;;;;;;;171.32;37.25;;;;;;;6.85;100.00;99980.59;4978357;28;20346;-38
2022/09/29 06:19:41;;;;;;;92.28;35.20;;;;;;;6.89;100.00;99979.19;5012060;28;20430;-38
2022/09/29 06:22:07;;;;;;;81.93;34.92;;;;;;;6.98;100.00;99983.50;5013774;28;20121;-37
2022/09/29 06:24:32;;;;;;;140.25;36.10;;;;;;;7.07;100.00;99989.59;5013571;28;20446;-35
2022/09/29 06:26:57;;;;;;;80.45;35.30;;;;;;;7.20;100.00;99987.97;4996206;28;20053;-37
2022/09/29 06:29:24;;;;;;;83.07;35.97;;;;;;;7.33;100.00;99994.56;5013046;28;20022;-37
2022/09/29 06:31:49;;;;;;;215.27;36.90;;;;;;;7.23;100.00;99989.44;5012674;28;20041;-37
2022/09/29 06:34:15;;;;;;;102.22;33.38;;;;;;;7.29;100.00;99993.25;5012781;28;20022;-37
2022/09/29 06:39:26;;;;;;;205.43;33.08;;;;;;;7.36;100.00;99994.19;5013266;28;20041;-36
2022/09/29 06:41:53;;;;;;;149.25;32.92;;;;;;;7.41;100.00;99997.16;5012298;28;20033;-37
2022/09/29 06:44:21;;;;;;;340.67;33.38;;;;;;;7.29;100.00;100006.63;5012633;28;20519;-37
2022/09/29 06:46:47;;;;;;;108.05;32.03;;;;;;;7.38;100.00;100013.59;5012937;28;20113;-38
2022/09/29 06:49:14;;;;;;;161.25;33.53;;;;;;;7.46;100.00;100016.19;4995256;28;20034;-37
2022/09/29 06:51:39;;;;;;;109.43;32.13;;;;;;;7.53;100.00;100022.47;4995569;28;20034;-37
2022/09/29 06:54:05;;;;;;;102.15;34.75;;;;;;;7.63;100.00;100022.19;5013023;28;20048;-36
2022/09/29 06:56:30;;;;;;;159.90;34.45;;;;;;;7.70;100.00;100023.13;5012859;28;20081;-37
2022/09/29 06:58:56;;;;;;;76.22;33.22;;;;;;;7.77;100.00;100025.91;4994353;28;20033;-36
2022/09/29 07:01:21;;;;;;;267.17;36.10;;;;;;;7.81;100.00;100028.03;5012264;28;20421;-37
2022/09/29 07:03:47;;;;;;;331.38;36.10;;;;;;;7.57;100.00;100034.47;5012351;28;20026;-37
2022/09/29 07:06:12;;;;;;;154.27;33.60;;;;;;;7.64;100.00;100030.06;5012178;28;20422;-36
2022/09/29 07:08:38;;;;;;;237.45;34.15;;;;;;;7.65;100.00;100029.03;5011656;28;20100;-37
2022/09/29 07:11:08;;;;;;;215.68;37.85;;;;;;;7.78;100.00;100035.59;4994470;28;20037;-37
2022/09/29 07:13:34;;;;;;;130.25;34.50;;;;;;;7.84;100.00;100037.53;5013660;28;20061;-37
2022/09/29 07:16:07;;;;;;;101.10;31.17;;;;;;;7.98;100.00;100036.72;4998021;28;20076;-37
2022/09/29 07:18:34;;;;;;;160.38;33.75;;;;;;;7.97;100.00;100040.41;5015799;28;20034;-36
2022/09/29 07:21:00;;;;;;;144.98;34.45;;;;;;;7.95;100.00;100037.06;4997877;28;20062;-37
2022/09/29 07:23:25;;;;;;;119.43;34.47;;;;;;;8.23;100.00;100050.66;5015660;28;20064;-37
2022/09/29 07:25:51;;;;;;;256.13;38.35;;;;;;;8.46;100.00;100045.22;4997866;28;20084;-37
2022/09/29 07:28:16;;;;;;;223.73;38.53;;;;;;;8.62;100.00;100041.50;4998295;28;20034;-39
2022/09/29 07:30:42;;;;;;;267.45;39.97;;;;;;;8.71;100.00;100044.88;4997782;28;20034;-38
2022/09/29 07:33:07;;;;;;;82.60;34.53;;;;;;;8.82;100.00;100048.91;5016041;28;20030;-38
2022/09/29 07:35:32;;;;;;;102.45;36.25;;;;;;;9.10;100.00;100052.50;5015176;28;20508;-38
2022/09/29 07:37:58;;;;;;;97.88;35.47;;;;;;;9.17;100.00;100063.34;5014984;28;20042;-37
2022/09/29 07:40:24;;;;;;;115.60;35.53;;;;;;;9.62;100.00;100061.25;5014445;28;20430;-36
2022/09/29 07:42:49;;;;;;;157.25;37.53;;;;;;;9.36;100.00;100060.00;5015186;28;20026;-37
2022/09/29 07:45:16;;;;;;;83.72;35.20;;;;;;;9.66;100.00;100065.19;4997489;28;20504;-36
2022/09/29 07:47:42;;;;;;;89.82;33.63;;;;;;;9.87;100.00;100067.84;5014661;28;20037;-35
2022/09/29 07:50:08;;;;;;;83.90;33.92;;;;;;;10.00;100.00;100069.75;5014796;28;20030;-37
2022/09/29 07:52:34;;;;;;;200.27;35.80;;;;;;;9.84;100.00;100076.28;5014725;28;20037;-37
2022/09/29 07:54:59;;;;;;;183.05;37.50;;;;;;;9.72;100.00;100072.47;4997516;28;20083;-38
2022/09/29 07:57:25;;;;;;;273.88;37.20;;;;;;;9.50;100.00;100073.53;5015020;28;20105;-37
2022/09/29 07:59:51;;;;;;;95.30;33.92;;;;;;;9.66;100.00;100073.25;5015545;28;20410;-39
2022/09/29 08:02:16;;;;;;;85.25;36.55;;;;;;;9.88;100.00;100076.72;5014591;28;20056;-38
2022/09/29 08:04:42;;;;;;;163.20;37.30;;;;;;;10.02;100.00;100080.34;5014436;28;20091;-38
2022/09/29 08:07:08;;;;;;;170.18;38.55;;;;;;;9.88;100.00;100082.94;5014051;28;20433;-38
2022/09/29 08:09:33;;;;;;;263.30;39.65;;;;;;;9.97;100.00;100085.47;5013905;28;20092;-38
2022/09/29 08:11:59;;;;;;;107.20;37.22;;;;;;;10.10;100.00;100096.31;5014439;28;20073;-37
2022/09/29 08:14:24;;;;;;;98.85;37.88;;;;;;;10.29;100.00;100092.94;4996487;28;20026;-38
2022/09/29 08:16:49;;;;;;;91.05;37.30;;;;;;;10.38;100.00;100096.31;4996382;28;20084;-37
2022/09/29 08:19:15;;;;;;;164.38;38.40;;;;;;;10.27;100.00;100096.84;4996666;28;20018;-36
2022/09/29 08:21:40;;;;;;;125.80;36.50;;;;;;;10.29;100.00;100097.47;5014138;28;20076;-37
2022/09/29 08:24:06;;;;;;;95.22;37.72;;;;;;;10.49;100.00;100098.41;5013622;28;20113;-37
2022/09/29 08:26:34;;;;;;;99.85;41.38;;;;;;;10.67;100.00;100105.97;5013369;28;20400;-37
2022/09/29 08:29:00;;;;;;;90.93;39.08;;;;;;;10.93;100.00;100107.91;5013652;28;20092;-38
2022/09/29 08:31:26;;;;;;;91.53;38.40;;;;;;;11.28;100.00;100109.66;5014338;28;20029;-38
2022/09/29 08:33:52;;;;;;;90.45;39.15;;;;;;;11.68;100.00;100115.91;5013995;28;20037;-38
2022/09/29 08:36:18;;;;;;;84.30;37.08;;;;;;;12.10;100.00;100121.13;5013348;28;20042;-38
2022/09/29 08:38:46;;;;;;;82.55;36.65;;;;;;;13.17;100.00;100125.13;5013905;28;20405;-37
2022/09/29 08:41:27;;;;;;;79.28;35.97;;;;;;;13.60;97.13;100119.84;5012896;28;20539;-38
2022/09/29 08:44:18;;;;;;;77.68;33.72;;;;;;;14.62;92.45;100133.09;5013284;28;20084;-38
2022/09/29 08:46:49;;;;;;;69.07;31.88;;;;;;;14.84;87.36;100129.91;5002490;28;20049;-38
2022/09/29 08:49:50;;;;;;;64.32;29.70;;;;;;;15.35;85.49;100126.72;4995453;28;20021;-38
2022/09/29 08:52:19;;;;;;;61.50;27.80;;;;;;;16.84;82.77;100131.06;4992685;28;20069;-37
2022/09/29 08:54:46;;;;;;;52.47;26.92;;;;;;;17.56;74.70;100137.84;4995400;28;20057;-37
2022/09/29 08:57:17;;;;;;;50.28;26.60;;;;;;;18.36;71.27;100141.34;5012916;28;20152;-37
2022/09/29 08:59:47;;;;;;;47.60;25.88;;;;;;;18.53;68.61;100142.13;4995354;28;20156;-38
2022/09/29 09:02:12;;;;;;;51.88;24.60;;;;;;;18.02;65.32;100141.38;4978480;28;20116;-37
2022/09/29 09:04:50;;;;;;;54.30;25.38;;;;;;;17.10;68.06;100150.59;5012289;28;20117;-38
2022/09/29 09:07:42;;;;;;;54.63;23.58;;;;;;;16.16;71.74;100140.69;5012260;28;20026;-39
2022/09/29 09:10:10;;;;;;;46.53;22.25;;;;;;;15.94;74.05;100145.88;4981354;28;20046;-38
2022/09/29 09:12:45;;;;;;;49.08;22.63;;;;;;;15.08;76.69;100150.66;5012072;28;20060;-38
2022/09/29 09:15:23;;;;;;;40.60;21.88;;;;;;;14.67;79.31;100151.38;4994766;28;20389;-37
2022/09/29 09:18:10;;;;;;;42.80;21.73;;;;;;;14.14;81.08;100141.91;5012117;28;20050;-37
2022/09/29 09:20:54;;;;;;;41.33;20.92;;;;;;;14.05;81.79;100154.84;4994480;28;20444;-37
2022/09/29 09:23:23;;;;;;;43.85;20.20;;;;;;;13.98;82.38;100146.00;5011807;28;20044;-36
2022/09/29 09:26:00;;;;;;;39.03;18.95;;;;;;;14.01;83.64;100150.13;4994386;28;20079;-36
2022/09/29 09:28:30;;;;;;;36.25;19.45;;;;;;;14.13;84.26;100151.03;4977816;28;20034;-36
2022/09/29 09:31:04;;;;;;;37.38;17.70;;;;;;;14.00;83.86;100148.47;5011830;28;20084;-36
2022/09/29 09:33:32;;;;;;;42.17;17.85;;;;;;;14.09;84.95;100147.16;4993984;28;20030;-36
2022/09/29 09:36:07;;;;;;;32.67;16.67;;;;;;;14.09;84.62;100155.25;5011353;28;20022;-38
2022/09/29 09:38:47;;;;;;;21.52;13.23;;;;;;;14.08;83.60;100158.19;4993615;28;20045;-37
2022/09/29 09:41:16;;;;;;;26.08;13.20;;;;;;;14.03;83.44;100150.72;4977544;28;20026;-36
2022/09/29 09:43:48;;;;;;;25.50;14.25;;;;;;;13.93;83.00;100155.78;5010983;28;20022;-37
2022/09/29 09:46:34;;;;;;;28.90;13.10;;;;;;;13.59;83.14;100156.06;5011321;28;20400;-37
2022/09/29 09:49:18;;;;;;;32.08;13.73;;;;;;;13.64;83.43;100158.13;5011358;28;20365;-37
2022/09/29 09:51:55;;;;;;;28.60;15.02;;;;;;;13.65;83.85;100154.34;5011016;28;20482;-37
2022/09/29 09:54:23;;;;;;;26.00;13.68;;;;;;;13.65;84.59;100158.94;4993215;28;20041;-37
2022/09/29 09:56:48;;;;;;;26.35;14.70;;;;;;;13.58;83.34;100158.97;5010965;28;20448;-37
2022/09/29 09:59:32;;;;;;;34.90;15.75;;;;;;;13.71;84.94;100158.88;5011117;28;20072;-37
2022/09/29 10:01:58;;;;;;;28.73;13.43;;;;;;;13.96;84.76;100160.78;5011374;28;20563;-35
2022/09/29 10:04:24;;;;;;;25.08;11.90;;;;;;;13.96;83.40;100161.63;4993089;28;20018;-37
2022/09/29 10:06:51;;;;;;;20.77;10.68;;;;;;;14.17;82.46;100165.81;4993208;28;20034;-37
2022/09/29 10:09:16;;;;;;;22.92;11.23;;;;;;;13.98;80.16;100164.06;5011150;28;20069;-37
2022/09/29 10:11:45;;;;;;;21.40;10.82;;;;;;;14.15;80.31;100159.78;5010845;28;20389;-37
2022/09/29 10:14:20;;;;;;;25.98;11.70;;;;;;;14.22;78.20;100159.72;5010713;28;20022;-37
2022/09/29 10:16:56;;;;;;;24.83;11.35;;;;;;;14.24;78.67;100163.03;5010532;28;20029;-36
2022/09/29 10:19:23;;;;;;;13.20;8.38;;;;;;;14.33;76.65;100166.28;4993080;28;20041;-36
2022/09/29 10:21:49;;;;;;;14.80;7.77;;;;;;;14.24;75.37;100163.88;4993139;28;20033;-36
2022/09/29 10:24:27;;;;;;;15.80;7.07;;;;;;;14.19;76.59;100163.72;5010543;28;20030;-37
2022/09/29 10:26:54;;;;;;;15.98;7.15;;;;;;;14.20;76.09;100169.94;5010795;28;20546;-36
2022/09/29 10:29:40;;;;;;;19.48;8.88;;;;;;;14.18;77.04;100170.16;4993203;28;20117;-34
2022/09/29 10:32:13;;;;;;;16.65;8.00;;;;;;;14.23;77.33;100169.50;5010345;28;20065;-34
2022/09/29 10:34:53;;;;;;;11.57;4.63;;;;;;;14.30;74.77;100166.72;4993082;28;20026;-35
2022/09/29 10:37:22;;;;;;;11.30;4.03;;;;;;;14.46;73.07;100172.41;5010665;28;20031;-36
2022/09/29 10:39:48;;;;;;;6.80;4.07;;;;;;;14.51;72.19;100174.44;5010487;28;20381;-36
2022/09/29 10:42:20;;;;;;;6.07;4.07;;;;;;;14.56;69.56;100169.22;5010510;28;20084;-36
2022/09/29 10:44:59;;;;;;;11.45;3.80;;;;;;;14.58;70.72;100174.38;5010204;28;20018;-36
2022/09/29 10:47:25;;;;;;;6.57;4.30;;;;;;;14.30;67.99;100174.81;5010869;28;20413;-36
2022/09/29 10:50:13;;;;;;;5.95;3.30;;;;;;;14.29;69.37;100176.72;5014000;28;20111;-37
2022/09/29 10:52:47;;;;;;;8.48;4.75;;;;;;;14.40;70.23;100178.72;5014387;28;20033;-36
2022/09/29 10:55:24;;;;;;;11.77;4.15;;;;;;;14.18;68.57;100178.28;4996574;28;20061;-36
2022/09/29 10:57:51;;;;;;;8.68;3.97;;;;;;;14.01;69.46;100178.00;4996736;28;20544;-37
2022/09/29 11:00:30;;;;;;;12.35;3.97;;;;;;;13.94;70.35;100188.06;5013962;28;20424;-37
2022/09/29 11:03:07;;;;;;;7.57;3.20;;;;;;;13.72;69.14;100182.19;4996351;28;20036;-35
2022/09/29 11:05:33;;;;;;;7.05;3.13;;;;;;;13.82;70.81;100177.13;4996690;28;20037;-36
2022/09/29 11:07:58;;;;;;;6.55;3.20;;;;;;;13.90;68.37;100181.44;5014034;28;20109;-37
2022/09/29 11:10:35;;;;;;;11.80;3.15;;;;;;;14.13;67.26;100185.41;4995874;28;20427;-36
2022/09/29 11:13:27;;;;;;;13.30;3.60;;;;;;;14.15;67.39;100189.53;4996879;28;20030;-36
2022/09/29 11:16:02;;;;;;;9.60;3.80;;;;;;;14.38;69.39;100188.94;5009776;28;20068;-36
2022/09/29 11:18:34;;;;;;;13.57;3.30;;;;;;;14.77;68.00;100186.91;5013671;28;20033;-38
2022/09/29 11:21:20;;;;;;;9.07;2.67;;;;;;;14.92;66.70;100195.44;5013933;28;20033;-35
2022/09/29 11:24:33;;;;;;;6.28;3.20;;;;;;;15.11;63.17;100195.44;4973132;28;20042;-37
2022/09/29 11:27:20;;;;;;;4.30;2.92;;;;;;;15.31;64.35;100196.00;5006371;28;20499;-38
2022/09/29 11:30:06;;;;;;;9.27;3.58;;;;;;;15.77;65.02;100199.16;5014203;28;20144;-37
2022/09/29 11:32:43;;;;;;;6.20;3.33;;;;;;;16.28;63.95;100195.00;5013831;28;20026;-37